createdAt,value
2019-01-20T00:00:25.276Z,99893.61
2019-01-20T00:02:51.470Z,99891.38
2019-01-20T00:05:17.919Z,99893.98
2019-01-20T00:07:44.079Z,99889.39
2019-01-20T00:10:11.861Z,99891.63
2019-01-20T00:12:38.007Z,99897.45
2019-01-20T00:15:07.770Z,99899.53
2019-01-20T00:17:34.056Z,99897.78
2019-01-20T00:20:00.250Z,99897.45
2019-01-20T00:22:26.372Z,99895.27
2019-01-20T00:24:52.669Z,99894.20
2019-01-20T00:27:18.821Z,99904.11
2019-01-20T00:29:44.981Z,99897.02
2019-01-20T00:32:11.263Z,99899.39
2019-01-20T00:34:37.424Z,99902.41
2019-01-20T00:37:03.576Z,99907.45
2019-01-20T00:39:29.752Z,99911.14
2019-01-20T00:41:55.908Z,99909.80
2019-01-20T00:44:22.081Z,99901.42
2019-01-20T00:46:48.450Z,99905.81
2019-01-20T00:49:14.708Z,99897.60
2019-01-20T00:51:40.981Z,99900.84
2019-01-20T00:54:07.479Z,99894.15
2019-01-20T00:56:33.638Z,99891.91
2019-01-20T00:58:59.788Z,99896.27
2019-01-20T01:01:25.974Z,99897.02
2019-01-20T01:03:52.130Z,99897.20
2019-01-20T01:06:19.993Z,99888.81
2019-01-20T01:08:46.185Z,99890.73
2019-01-20T01:11:12.341Z,99889.98
2019-01-20T01:13:38.609Z,99890.12
2019-01-20T01:16:04.802Z,99891.56
2019-01-20T01:18:31.047Z,99891.26
2019-01-20T01:20:57.205Z,99888.95
2019-01-20T01:23:23.503Z,99887.25
2019-01-20T01:25:49.710Z,99891.25
2019-01-20T01:28:15.864Z,99884.83
2019-01-20T01:30:42.148Z,99884.63
2019-01-20T01:33:08.420Z,99885.30
2019-01-20T01:35:34.677Z,99885.02
2019-01-20T01:38:00.863Z,99882.84
2019-01-20T01:40:27.021Z,99885.20
2019-01-20T01:42:53.178Z,99873.98
2019-01-20T01:45:19.667Z,99872.57
2019-01-20T01:47:45.936Z,99876.20
2019-01-20T01:50:13.690Z,99878.09
2019-01-20T01:52:39.893Z,99874.80
2019-01-20T01:55:07.954Z,99870.26
2019-01-20T01:57:34.100Z,99866.17
2019-01-20T02:00:00.390Z,99868.48
2019-01-20T02:02:26.665Z,99867.95
2019-01-20T02:04:52.923Z,99864.14
2019-01-20T02:07:19.111Z,99858.68
2019-01-20T02:09:45.367Z,99860.48
2019-01-20T02:12:11.521Z,99860.03
2019-01-20T02:14:37.700Z,99855.41
2019-01-20T02:17:03.954Z,99860.59
2019-01-20T02:19:30.111Z,99861.48
2019-01-20T02:21:56.307Z,99857.63
2019-01-20T02:24:22.488Z,99856.78
2019-01-20T02:26:48.742Z,99858.45
2019-01-20T02:29:14.927Z,99856.70
2019-01-20T02:31:41.185Z,99859.42
2019-01-20T02:34:07.352Z,99852.62
2019-01-20T02:36:33.539Z,99850.01
2019-01-20T02:38:59.692Z,99860.07
2019-01-20T02:41:25.860Z,99855.46
2019-01-20T02:43:52.050Z,99864.95
2019-01-20T02:46:18.211Z,99853.11
2019-01-20T02:48:44.430Z,99854.34
2019-01-20T02:51:10.596Z,99850.06
2019-01-20T02:53:36.755Z,99850.19
2019-01-20T02:56:03.499Z,99850.63
2019-01-20T02:58:29.682Z,99845.69
2019-01-20T03:00:55.843Z,99839.06
2019-01-20T03:03:22.004Z,99839.33
2019-01-20T03:05:48.188Z,99837.67
2019-01-20T03:08:14.352Z,99829.50
2019-01-20T03:10:40.503Z,99834.26
2019-01-20T03:13:06.688Z,99832.59
2019-01-20T03:15:32.847Z,99823.91
2019-01-20T03:17:59.009Z,99830.28
2019-01-20T03:20:25.199Z,99824.52
2019-01-20T03:22:51.563Z,99829.08
2019-01-20T03:25:18.426Z,99823.30
2019-01-20T03:27:44.601Z,99823.88
2019-01-20T03:30:16.646Z,99828.95
2019-01-20T03:32:42.787Z,99820.58
2019-01-20T03:35:10.380Z,99818.03
2019-01-20T03:37:36.529Z,99818.36
2019-01-20T03:40:06.187Z,99826.37
2019-01-20T03:42:32.373Z,99818.89
2019-01-20T03:44:58.527Z,99817.08
2019-01-20T03:47:24.683Z,99828.89
2019-01-20T03:49:51.065Z,99828.20
2019-01-20T03:52:17.219Z,99827.02
2019-01-20T03:54:43.367Z,99834.94
2019-01-20T03:57:09.661Z,99831.81
2019-01-20T03:59:35.821Z,99828.45
2019-01-20T04:02:01.971Z,99819.34
2019-01-20T04:04:28.153Z,99818.70
2019-01-20T04:06:54.308Z,99814.65
2019-01-20T04:09:20.463Z,99812.03
2019-01-20T04:11:46.648Z,99811.17
2019-01-20T04:14:12.798Z,99806.80
2019-01-20T04:16:38.949Z,99807.03
2019-01-20T04:19:05.127Z,99800.23
2019-01-20T04:21:31.291Z,99793.59
2019-01-20T04:23:57.444Z,99798.17
2019-01-20T04:26:23.624Z,99796.63
2019-01-20T04:28:49.781Z,99800.38
2019-01-20T04:31:15.943Z,99792.59
2019-01-20T04:33:42.118Z,99793.02
2019-01-20T04:36:08.281Z,99794.76
2019-01-20T04:38:34.538Z,99798.77
2019-01-20T04:41:00.734Z,99798.14
2019-01-20T04:43:26.896Z,99787.95
2019-01-20T04:45:53.041Z,99792.20
2019-01-20T04:48:19.225Z,99788.03
2019-01-20T04:50:45.486Z,99784.56
2019-01-20T04:53:11.645Z,99781.07
2019-01-20T04:55:37.944Z,99781.45
2019-01-20T04:58:04.601Z,99779.33
2019-01-20T05:00:30.758Z,99782.83
2019-01-20T05:02:56.946Z,99776.83
2019-01-20T05:05:23.100Z,99774.53
2019-01-20T05:07:49.248Z,99779.66
2019-01-20T05:10:17.240Z,99777.44
2019-01-20T05:12:43.502Z,99780.36
2019-01-20T05:15:15.286Z,99783.58
2019-01-20T05:17:41.467Z,99776.64
2019-01-20T05:20:08.726Z,99780.64
2019-01-20T05:22:34.891Z,99775.33
2019-01-20T05:25:01.081Z,99773.03
2019-01-20T05:27:27.339Z,99777.31
2019-01-20T05:29:53.494Z,99779.80
2019-01-20T05:32:19.684Z,99777.19
2019-01-20T05:34:47.387Z,99784.78
2019-01-20T05:37:13.541Z,99778.40
2019-01-20T05:39:39.736Z,99777.63
2019-01-20T05:42:05.899Z,99776.98
2019-01-20T05:44:32.055Z,99779.37
2019-01-20T05:46:58.341Z,99775.62
2019-01-20T05:49:24.498Z,99764.89
2019-01-20T05:51:50.801Z,99766.06
2019-01-20T05:54:16.993Z,99773.09
2019-01-20T05:56:43.160Z,99769.12
2019-01-20T05:59:09.323Z,99769.20
2019-01-20T06:01:35.538Z,99763.39
2019-01-20T06:04:01.730Z,99775.23
2019-01-20T06:06:27.971Z,99772.31
2019-01-20T06:08:54.167Z,99784.14
2019-01-20T06:11:20.324Z,99785.43
2019-01-20T06:13:46.485Z,99783.22
2019-01-20T06:16:12.671Z,99778.59
2019-01-20T06:18:38.919Z,99783.93
2019-01-20T06:21:05.065Z,99779.30
2019-01-20T06:23:31.254Z,99777.66
2019-01-20T06:25:57.409Z,99777.85
2019-01-20T06:28:23.573Z,99775.64
2019-01-20T06:30:49.767Z,99776.83
2019-01-20T06:33:16.037Z,99765.08
2019-01-20T06:35:42.291Z,99763.51
2019-01-20T06:38:08.486Z,99760.16
2019-01-20T06:40:34.647Z,99758.15
2019-01-20T06:43:02.317Z,99759.47
2019-01-20T06:45:28.704Z,99757.48
2019-01-20T06:47:54.853Z,99761.84
2019-01-20T06:50:21.210Z,99756.27
2019-01-20T06:52:47.410Z,99761.98
2019-01-20T06:55:13.563Z,99759.31
2019-01-20T06:57:39.919Z,99760.91
2019-01-20T07:00:18.035Z,99752.14
2019-01-20T07:02:44.185Z,99750.39
2019-01-20T07:05:10.557Z,99752.70
2019-01-20T07:07:36.762Z,99747.04
2019-01-20T07:10:05.821Z,99742.93
2019-01-20T07:12:31.982Z,99753.62
2019-01-20T07:14:58.174Z,99759.26
2019-01-20T07:17:24.334Z,99746.55
2019-01-20T07:19:50.496Z,99747.28
2019-01-20T07:22:16.789Z,99743.55
2019-01-20T07:24:43.036Z,99745.24
2019-01-20T07:27:09.188Z,99736.90
2019-01-20T07:29:35.433Z,99744.13
2019-01-20T07:32:01.685Z,99745.11
2019-01-20T07:34:27.848Z,99747.63
2019-01-20T07:36:54.025Z,99749.22
2019-01-20T07:39:20.180Z,99750.61
2019-01-20T07:41:46.331Z,99750.80
2019-01-20T07:44:12.514Z,99745.38
2019-01-20T07:46:38.667Z,99746.05
2019-01-20T07:49:04.818Z,99738.34
2019-01-20T07:51:31.109Z,99742.02
2019-01-20T07:53:57.500Z,99747.39
2019-01-20T07:56:23.654Z,99743.84
2019-01-20T07:58:49.953Z,99751.63
2019-01-20T08:01:16.207Z,99750.89
2019-01-20T08:03:42.366Z,99753.83
2019-01-20T08:06:08.554Z,99745.58
2019-01-20T08:08:34.705Z,99746.26
2019-01-20T08:11:00.860Z,99746.31
2019-01-20T08:13:27.056Z,99754.20
2019-01-20T08:15:53.213Z,99747.05
2019-01-20T08:18:19.479Z,99748.24
2019-01-20T08:20:45.664Z,99744.77
2019-01-20T08:23:11.816Z,99757.38
2019-01-20T08:25:37.996Z,99745.82
2019-01-20T08:28:04.177Z,99748.63
2019-01-20T08:30:30.332Z,99737.89
2019-01-20T08:32:56.484Z,99747.24
2019-01-20T08:35:23.292Z,99751.95
2019-01-20T08:37:49.440Z,99745.09
2019-01-20T08:40:23.943Z,99746.73
2019-01-20T08:42:50.143Z,99738.41
2019-01-20T08:45:31.998Z,99738.83
2019-01-20T08:48:04.514Z,99737.50
2019-01-20T08:50:30.784Z,99738.34
2019-01-20T08:52:56.960Z,99730.48
2019-01-20T08:55:23.462Z,99728.27
2019-01-20T08:57:49.614Z,99731.69
2019-01-20T09:00:15.877Z,99732.46
2019-01-20T09:02:42.156Z,99713.66
2019-01-20T09:05:08.837Z,99718.71
2019-01-20T09:07:34.987Z,99723.69
2019-01-20T09:10:01.175Z,99711.34
2019-01-20T09:12:27.740Z,99705.36
2019-01-20T09:14:54.005Z,99699.50
2019-01-20T09:17:20.296Z,99692.97
2019-01-20T09:19:46.459Z,99690.13
2019-01-20T09:22:12.609Z,99691.77
2019-01-20T09:24:38.798Z,99683.34
2019-01-20T09:27:04.958Z,99685.09
2019-01-20T09:29:31.221Z,99678.23
2019-01-20T09:31:57.424Z,99675.48
2019-01-20T09:34:23.582Z,99660.12
2019-01-20T09:36:49.736Z,99657.95
2019-01-20T09:39:15.924Z,99657.18
2019-01-20T09:41:42.081Z,99649.42
2019-01-20T09:44:08.240Z,99655.38
2019-01-20T09:46:34.542Z,99652.49
2019-01-20T09:49:00.754Z,99650.15
2019-01-20T09:51:26.963Z,99643.22
2019-01-20T09:53:53.261Z,99644.84
2019-01-20T09:56:19.526Z,99635.23
2019-01-20T09:58:45.675Z,99631.10
2019-01-20T10:01:12.036Z,99622.11
2019-01-20T10:03:38.201Z,99611.56
2019-01-20T10:06:04.560Z,99608.38
2019-01-20T10:08:30.742Z,99608.05
2019-01-20T10:10:56.899Z,99604.41
2019-01-20T10:13:23.047Z,99612.23
2019-01-20T10:15:52.159Z,99607.13
2019-01-20T10:18:17.303Z,99597.89
2019-01-20T10:20:43.473Z,99599.88
2019-01-20T10:23:09.769Z,99603.56
2019-01-20T10:25:36.030Z,99605.38
2019-01-20T10:28:02.376Z,99598.98
2019-01-20T10:30:33.536Z,99595.00
2019-01-20T10:32:59.991Z,99589.75
2019-01-20T10:35:28.048Z,99591.03
2019-01-20T10:37:55.938Z,99593.16
2019-01-20T10:40:22.086Z,99589.86
2019-01-20T10:42:48.363Z,99593.73
2019-01-20T10:45:14.608Z,99595.73
2019-01-20T10:47:40.889Z,99595.30
2019-01-20T10:50:10.130Z,99592.95
2019-01-20T10:52:36.435Z,99585.47
2019-01-20T10:55:03.601Z,99577.45
2019-01-20T10:57:29.803Z,99576.36
2019-01-20T10:59:56.097Z,99570.48
2019-01-20T11:02:22.258Z,99561.80
2019-01-20T11:04:48.415Z,99554.41
2019-01-20T11:07:14.618Z,99555.11
2019-01-20T11:09:40.780Z,99555.08
2019-01-20T11:12:06.927Z,99557.08
2019-01-20T11:14:33.229Z,99547.41
2019-01-20T11:16:59.382Z,99544.01
2019-01-20T11:19:25.556Z,99535.27
2019-01-20T11:21:51.723Z,99532.47
2019-01-20T11:24:17.880Z,99527.91
2019-01-20T11:26:44.135Z,99526.94
2019-01-20T11:29:10.321Z,99526.63
2019-01-20T11:31:36.590Z,99530.59
2019-01-20T11:34:02.747Z,99519.70
2019-01-20T11:36:28.984Z,99519.06
2019-01-20T11:38:55.140Z,99515.55
2019-01-20T11:41:21.297Z,99506.58
2019-01-20T11:43:47.501Z,99504.51
2019-01-20T11:46:13.662Z,99501.95
2019-01-20T11:48:39.827Z,99500.70
2019-01-20T11:51:06.125Z,99500.26
2019-01-20T11:53:32.382Z,99493.91
2019-01-20T11:55:58.535Z,99484.84
2019-01-20T11:58:24.881Z,99481.68
2019-01-20T12:00:51.036Z,99486.81
2019-01-20T12:03:17.224Z,99484.82
2019-01-20T12:05:43.413Z,99488.13
2019-01-20T12:08:09.577Z,99480.20
2019-01-20T12:10:35.827Z,99473.52
2019-01-20T12:13:10.138Z,99468.98
2019-01-20T12:15:36.295Z,99464.93
2019-01-20T12:18:03.057Z,99475.47
2019-01-20T12:20:29.248Z,99476.48
2019-01-20T12:22:55.567Z,99466.84
2019-01-20T12:25:21.725Z,99463.83
2019-01-20T12:27:47.919Z,99457.72
2019-01-20T12:30:17.276Z,99446.61
2019-01-20T12:32:43.637Z,99452.44
2019-01-20T12:35:10.034Z,99457.12
2019-01-20T12:37:36.186Z,99452.35
2019-01-20T12:40:08.522Z,99441.83
2019-01-20T12:42:34.814Z,99440.53
2019-01-20T12:45:00.969Z,99448.50
2019-01-20T12:47:27.118Z,99443.59
2019-01-20T12:49:53.414Z,99445.00
2019-01-20T12:52:19.597Z,99448.95
2019-01-20T12:54:45.766Z,99442.59
2019-01-20T12:57:11.961Z,99430.97
2019-01-20T12:59:38.155Z,99439.19
2019-01-20T13:02:04.312Z,99431.28
2019-01-20T13:04:30.608Z,99432.08
2019-01-20T13:06:56.772Z,99433.25
2019-01-20T13:09:22.923Z,99436.05
2019-01-20T13:11:49.115Z,99435.20
2019-01-20T13:14:15.277Z,99429.91
2019-01-20T13:16:41.457Z,99419.05
2019-01-20T13:19:07.625Z,99418.04
2019-01-20T13:21:33.781Z,99420.03
2019-01-20T13:24:00.034Z,99417.34
2019-01-20T13:26:26.326Z,99410.83
2019-01-20T13:28:52.516Z,99416.00
2019-01-20T13:31:18.657Z,99415.68
2019-01-20T13:33:44.942Z,99418.67
2019-01-20T13:36:11.212Z,99431.56
2019-01-20T13:38:37.365Z,99422.70
2019-01-20T13:41:03.750Z,99422.70
2019-01-20T13:43:29.905Z,99414.00
2019-01-20T13:45:56.054Z,99418.70
2019-01-20T13:48:22.339Z,99413.69
2019-01-20T13:50:48.515Z,99419.05
2019-01-20T13:53:14.666Z,99427.73
2019-01-20T13:55:40.854Z,99426.88
2019-01-20T13:58:07.007Z,99431.02
2019-01-20T14:00:33.311Z,99430.73
2019-01-20T14:02:59.594Z,99420.69
2019-01-20T14:05:25.755Z,99429.05
2019-01-20T14:07:51.916Z,99424.13
2019-01-20T14:10:20.114Z,99425.30
2019-01-20T14:12:46.266Z,99427.61
2019-01-20T14:15:14.126Z,99437.02
2019-01-20T14:17:40.307Z,99427.61
2019-01-20T14:20:10.073Z,99427.31
2019-01-20T14:22:36.231Z,99428.05
2019-01-20T14:25:04.624Z,99422.57
2019-01-20T14:27:30.776Z,99429.95
2019-01-20T14:29:56.930Z,99430.98
2019-01-20T14:32:23.118Z,99423.31
2019-01-20T14:34:49.268Z,99426.62
2019-01-20T14:37:15.433Z,99437.43
2019-01-20T14:39:41.723Z,99428.72
2019-01-20T14:42:07.883Z,99421.66
2019-01-20T14:44:34.153Z,99415.02
2019-01-20T14:47:00.341Z,99421.66
2019-01-20T14:49:26.511Z,99431.41
2019-01-20T14:51:52.651Z,99431.40
2019-01-20T14:54:18.843Z,99434.36
2019-01-20T14:56:44.994Z,99429.33
2019-01-20T14:59:11.160Z,99429.73
2019-01-20T15:01:37.412Z,99436.06
2019-01-20T15:04:03.573Z,99432.89
2019-01-20T15:06:29.726Z,99435.55
2019-01-20T15:08:55.902Z,99444.60
2019-01-20T15:11:22.073Z,99441.08
2019-01-20T15:13:48.228Z,99451.78
2019-01-20T15:16:14.430Z,99444.59
2019-01-20T15:18:40.683Z,99445.10
2019-01-20T15:21:06.852Z,99455.78
2019-01-20T15:23:33.150Z,99452.59
2019-01-20T15:25:59.406Z,99458.65
2019-01-20T15:28:25.589Z,99462.14
2019-01-20T15:30:51.777Z,99464.83
2019-01-20T15:33:17.925Z,99463.33
2019-01-20T15:35:44.084Z,99468.45
2019-01-20T15:38:10.287Z,99472.64
2019-01-20T15:40:36.535Z,99478.52
2019-01-20T15:43:02.996Z,99477.52
2019-01-20T15:45:29.186Z,99480.03
2019-01-20T15:47:55.364Z,99477.00
2019-01-20T15:50:26.707Z,99471.84
2019-01-20T15:52:52.917Z,99467.48
2019-01-20T15:55:20.421Z,99467.51
2019-01-20T15:57:46.680Z,99470.14
2019-01-20T16:00:25.658Z,99473.17
2019-01-20T16:02:51.973Z,99473.31
2019-01-20T16:05:18.231Z,99460.80
2019-01-20T16:07:44.452Z,99459.80
2019-01-20T16:10:13.129Z,99463.99
2019-01-20T16:12:39.290Z,99461.14
2019-01-20T16:15:09.086Z,99466.17
2019-01-20T16:17:35.249Z,99470.50
2019-01-20T16:20:01.522Z,99469.34
2019-01-20T16:22:27.711Z,99469.02
2019-01-20T16:24:53.864Z,99478.03
2019-01-20T16:27:20.135Z,99480.53
2019-01-20T16:29:46.428Z,99472.50
2019-01-20T16:32:12.690Z,99482.22
2019-01-20T16:34:38.836Z,99475.68
2019-01-20T16:37:06.234Z,99481.39
2019-01-20T16:39:32.655Z,99477.03
2019-01-20T16:41:59.298Z,99475.30
2019-01-20T16:44:26.569Z,99484.63
2019-01-20T16:46:52.744Z,99482.80
2019-01-20T16:49:20.412Z,99476.18
2019-01-20T16:51:46.586Z,99482.54
2019-01-20T16:54:12.749Z,99484.86
2019-01-20T16:56:39.012Z,99483.53
2019-01-20T16:59:05.224Z,99490.37
2019-01-20T17:01:31.506Z,99495.20
2019-01-20T17:03:57.838Z,99501.94
2019-01-20T17:06:24.354Z,99503.73
2019-01-20T17:08:50.507Z,99513.27
2019-01-20T17:11:16.670Z,99512.41
2019-01-20T17:13:42.860Z,99514.79
2019-01-20T17:16:09.023Z,99512.24
2019-01-20T17:18:35.204Z,99509.27
2019-01-20T17:21:01.766Z,99520.45
2019-01-20T17:23:27.916Z,99508.97
2019-01-20T17:25:54.417Z,99505.79
2019-01-20T17:28:20.733Z,99517.81
2019-01-20T17:30:46.886Z,99517.00
2019-01-20T17:33:13.079Z,99509.79
2019-01-20T17:35:39.753Z,99519.50
2019-01-20T17:38:05.903Z,99515.66
2019-01-20T17:40:32.180Z,99512.98
2019-01-20T17:42:58.493Z,99513.48
2019-01-20T17:45:33.610Z,99515.66
2019-01-20T17:48:01.033Z,99512.12
2019-01-20T17:50:32.759Z,99518.27
2019-01-20T17:52:59.412Z,99528.02
2019-01-20T17:55:25.703Z,99535.69
2019-01-20T17:57:51.957Z,99533.69
2019-01-20T18:00:21.632Z,99528.20
2019-01-20T18:02:47.916Z,99526.18
2019-01-20T18:05:17.123Z,99525.16
2019-01-20T18:07:43.596Z,99527.84
2019-01-20T18:10:11.585Z,99537.03
2019-01-20T18:12:37.748Z,99540.72
2019-01-20T18:15:07.654Z,99547.59
2019-01-20T18:17:33.975Z,99548.74
2019-01-20T18:20:00.213Z,99544.31
2019-01-20T18:22:26.551Z,99550.34
2019-01-20T18:24:52.847Z,99544.98
2019-01-20T18:27:19.122Z,99550.30
2019-01-20T18:29:45.492Z,99554.99
2019-01-20T18:32:11.689Z,99553.74
2019-01-20T18:34:37.954Z,99560.05
2019-01-20T18:37:04.232Z,99555.25
2019-01-20T18:39:30.424Z,99552.02
2019-01-20T18:41:56.737Z,99551.64
2019-01-20T18:44:23.004Z,99550.80
2019-01-20T18:46:49.203Z,99558.35
2019-01-20T18:49:15.365Z,99562.53
2019-01-20T18:51:41.545Z,99560.91
2019-01-20T18:54:07.761Z,99561.13
2019-01-20T18:56:33.945Z,99545.07
2019-01-20T18:59:00.109Z,99550.94
2019-01-20T19:01:26.319Z,99545.91
2019-01-20T19:03:52.987Z,99545.91
2019-01-20T19:06:19.162Z,99552.77
2019-01-20T19:08:45.351Z,99554.44
2019-01-20T19:11:11.527Z,99562.79
2019-01-20T19:13:37.789Z,99574.29
2019-01-20T19:16:08.866Z,99571.98
2019-01-20T19:18:32.150Z,99573.84
2019-01-20T19:20:58.290Z,99580.53
2019-01-20T19:23:24.897Z,99580.65
2019-01-20T19:25:51.048Z,99578.96
2019-01-20T19:28:17.226Z,99577.89
2019-01-20T19:30:43.518Z,99572.84
2019-01-20T19:33:09.667Z,99575.20
2019-01-20T19:35:35.821Z,99590.63
2019-01-20T19:38:02.005Z,99589.34
2019-01-20T19:40:28.160Z,99586.84
2019-01-20T19:42:54.314Z,99600.40
2019-01-20T19:45:20.947Z,99591.64
2019-01-20T19:47:47.481Z,99596.67
2019-01-20T19:50:15.343Z,99592.64
2019-01-20T19:52:41.637Z,99589.48
2019-01-20T19:55:11.113Z,99569.51
2019-01-20T19:57:37.435Z,99579.80
2019-01-20T20:00:07.015Z,99582.66
2019-01-20T20:02:33.187Z,99582.58
2019-01-20T20:04:59.349Z,99587.28
2019-01-20T20:07:25.939Z,99589.37
2019-01-20T20:09:52.207Z,99588.61
2019-01-20T20:12:18.359Z,99597.64
2019-01-20T20:14:44.575Z,99604.13
2019-01-20T20:17:10.735Z,99601.47
2019-01-20T20:19:36.890Z,99606.19
2019-01-20T20:22:03.076Z,99604.71
2019-01-20T20:24:29.230Z,99607.22
2019-01-20T20:26:55.405Z,99602.78
2019-01-20T20:29:21.570Z,99608.47
2019-01-20T20:31:47.719Z,99615.69
2019-01-20T20:34:13.881Z,99621.64
2019-01-20T20:36:40.079Z,99619.32
2019-01-20T20:39:07.243Z,99622.61
2019-01-20T20:41:33.388Z,99621.98
2019-01-20T20:43:59.728Z,99620.97
2019-01-20T20:46:30.521Z,99622.13
2019-01-20T20:48:54.361Z,99629.52
2019-01-20T20:51:20.544Z,99630.94
2019-01-20T20:53:46.701Z,99632.31
2019-01-20T20:56:12.854Z,99633.78
2019-01-20T20:58:39.048Z,99641.00
2019-01-20T21:01:05.208Z,99644.49
2019-01-20T21:03:31.365Z,99644.20
2019-01-20T21:05:57.555Z,99653.08
2019-01-20T21:08:23.766Z,99650.45
2019-01-20T21:10:49.929Z,99651.13
2019-01-20T21:13:16.113Z,99656.77
2019-01-20T21:15:42.264Z,99653.92
2019-01-20T21:18:08.532Z,99660.80
2019-01-20T21:20:34.837Z,99659.19
2019-01-20T21:23:00.999Z,99663.14
2019-01-20T21:25:28.120Z,99664.51
2019-01-20T21:27:54.310Z,99658.30
2019-01-20T21:30:25.946Z,99666.21
2019-01-20T21:32:52.214Z,99669.58
2019-01-20T21:35:18.607Z,99678.20
2019-01-20T21:37:44.764Z,99671.67
2019-01-20T21:40:13.439Z,99669.97
2019-01-20T21:42:39.624Z,99666.08
2019-01-20T21:45:08.490Z,99670.33
2019-01-20T21:47:34.642Z,99674.38
2019-01-20T21:50:00.847Z,99679.27
2019-01-20T21:52:27.009Z,99684.55
2019-01-20T21:54:53.173Z,99675.92
2019-01-20T21:57:19.360Z,99681.71
2019-01-20T21:59:45.620Z,99682.16
2019-01-20T22:02:11.784Z,99680.64
2019-01-20T22:04:38.063Z,99675.08
2019-01-20T22:07:04.216Z,99674.45
2019-01-20T22:09:30.480Z,99680.66
2019-01-20T22:11:56.680Z,99678.45
2019-01-20T22:14:23.170Z,99683.05
2019-01-20T22:16:52.820Z,99676.83
2019-01-20T22:19:17.482Z,99677.66
2019-01-20T22:21:43.792Z,99675.54
2019-01-20T22:24:09.950Z,99677.28
2019-01-20T22:26:36.147Z,99678.48
2019-01-20T22:29:02.405Z,99677.09
2019-01-20T22:31:28.663Z,99679.77
2019-01-20T22:33:54.972Z,99682.32
2019-01-20T22:36:21.126Z,99683.98
2019-01-20T22:38:47.290Z,99687.04
2019-01-20T22:41:13.488Z,99680.86
2019-01-20T22:43:39.776Z,99685.56
2019-01-20T22:46:06.012Z,99684.22
2019-01-20T22:48:32.310Z,99681.71
2019-01-20T22:50:58.470Z,99667.03
2019-01-20T22:53:24.729Z,99668.28
2019-01-20T22:55:50.917Z,99669.77
2019-01-20T22:58:17.172Z,99670.72
2019-01-20T23:00:48.433Z,99670.08
2019-01-20T23:03:14.863Z,99670.77
2019-01-20T23:05:41.023Z,99674.42
2019-01-20T23:08:07.188Z,99676.14
2019-01-20T23:10:34.459Z,99675.94
2019-01-20T23:13:00.652Z,99677.94
2019-01-20T23:15:26.778Z,99677.41
2019-01-20T23:17:53.050Z,99675.70
2019-01-20T23:20:19.237Z,99673.86
2019-01-20T23:22:45.427Z,99678.64
2019-01-20T23:25:11.617Z,99673.50
2019-01-20T23:27:37.802Z,99671.85
2019-01-20T23:30:07.521Z,99661.38
2019-01-20T23:32:33.748Z,99672.75
2019-01-20T23:35:00.011Z,99667.38
2019-01-20T23:37:26.220Z,99659.20
2019-01-20T23:39:52.423Z,99657.09
2019-01-20T23:42:18.575Z,99660.48
2019-01-20T23:44:44.741Z,99661.51
2019-01-20T23:47:15.258Z,99661.97
2019-01-20T23:49:39.422Z,99665.48
2019-01-20T23:52:05.590Z,99671.55
2019-01-20T23:54:31.879Z,99665.35
2019-01-20T23:56:58.043Z,99662.53
2019-01-20T23:59:24.210Z,99661.83
